sensor_id;sensor_type;location;lat;lon;timestamp;pressure;altitude;pressure_sealevel;temperature;humidity
11223;BME280;5668;52.012;8.724;2022-08-21T00:01:19;100292.78;;;21.00;68.95
11223;BME280;5668;52.012;8.724;2022-08-21T00:03:48;100289.03;;;20.94;69.81
11223;BME280;5668;52.012;8.724;2022-08-21T00:06:17;100285.22;;;20.97;70.14
11223;BME280;5668;52.012;8.724;2022-08-21T00:08:45;100282.06;;;21.01;69.58
11223;BME280;5668;52.012;8.724;2022-08-21T00:11:12;100288.16;;;21.02;70.03
11223;BME280;5668;52.012;8.724;2022-08-21T00:13:39;100286.19;;;21.04;69.85
11223;BME280;5668;52.012;8.724;2022-08-21T00:16:07;100276.44;;;21.04;69.39
11223;BME280;5668;52.012;8.724;2022-08-21T00:18:34;100274.00;;;20.95;68.61
11223;BME280;5668;52.012;8.724;2022-08-21T00:21:01;100274.59;;;20.82;69.79
11223;BME280;5668;52.012;8.724;2022-08-21T00:23:30;100262.16;;;20.60;71.43
11223;BME280;5668;52.012;8.724;2022-08-21T00:25:59;100269.81;;;20.38;73.09
11223;BME280;5668;52.012;8.724;2022-08-21T00:28:26;100266.06;;;20.25;74.19
11223;BME280;5668;52.012;8.724;2022-08-21T00:30:54;100275.94;;;20.31;74.27
11223;BME280;5668;52.012;8.724;2022-08-21T00:33:22;100276.75;;;20.39;73.54
11223;BME280;5668;52.012;8.724;2022-08-21T00:35:49;100271.31;;;20.33;72.38
11223;BME280;5668;52.012;8.724;2022-08-21T00:38:17;100279.09;;;20.34;72.96
11223;BME280;5668;52.012;8.724;2022-08-21T00:40:48;100280.06;;;20.41;72.63
11223;BME280;5668;52.012;8.724;2022-08-21T00:43:19;100278.22;;;20.50;72.26
11223;BME280;5668;52.012;8.724;2022-08-21T00:45:47;100282.78;;;20.56;72.08
11223;BME280;5668;52.012;8.724;2022-08-21T00:48:14;100273.72;;;20.59;71.86
11223;BME280;5668;52.012;8.724;2022-08-21T00:50:44;100275.00;;;20.63;71.84
11223;BME280;5668;52.012;8.724;2022-08-21T00:53:14;100274.00;;;20.64;71.52
11223;BME280;5668;52.012;8.724;2022-08-21T00:55:42;100277.34;;;20.58;71.21
11223;BME280;5668;52.012;8.724;2022-08-21T00:58:12;100269.28;;;20.51;72.13
11223;BME280;5668;52.012;8.724;2022-08-21T01:00:45;100273.41;;;20.45;71.97
11223;BME280;5668;52.012;8.724;2022-08-21T01:03:16;100277.75;;;20.30;72.95
11223;BME280;5668;52.012;8.724;2022-08-21T01:05:44;100280.38;;;20.30;73.63
11223;BME280;5668;52.012;8.724;2022-08-21T01:08:13;100275.09;;;20.38;73.55
11223;BME280;5668;52.012;8.724;2022-08-21T01:10:43;100284.19;;;20.44;73.40
11223;BME280;5668;52.012;8.724;2022-08-21T01:13:14;100282.00;;;20.47;73.13
11223;BME280;5668;52.012;8.724;2022-08-21T01:15:45;100278.22;;;20.50;72.97
11223;BME280;5668;52.012;8.724;2022-08-21T01:18:14;100278.66;;;20.54;71.98
11223;BME280;5668;52.012;8.724;2022-08-21T01:23:14;100271.19;;;20.34;72.88
11223;BME280;5668;52.012;8.724;2022-08-21T01:25:41;100275.63;;;20.26;73.46
11223;BME280;5668;52.012;8.724;2022-08-21T01:28:12;100274.66;;;20.19;73.83
11223;BME280;5668;52.012;8.724;2022-08-21T01:30:42;100277.31;;;20.19;74.00
11223;BME280;5668;52.012;8.724;2022-08-21T01:33:10;100273.00;;;20.18;73.92
11223;BME280;5668;52.012;8.724;2022-08-21T01:35:38;100278.28;;;20.18;73.85
11223;BME280;5668;52.012;8.724;2022-08-21T01:38:05;100281.63;;;20.12;73.88
11223;BME280;5668;52.012;8.724;2022-08-21T01:40:34;100276.00;;;20.15;74.30
11223;BME280;5668;52.012;8.724;2022-08-21T01:43:01;100276.63;;;20.25;73.86
11223;BME280;5668;52.012;8.724;2022-08-21T01:45:28;100269.66;;;20.32;73.69
11223;BME280;5668;52.012;8.724;2022-08-21T01:47:56;100264.91;;;20.35;73.25
11223;BME280;5668;52.012;8.724;2022-08-21T01:50:24;100268.00;;;20.39;72.76
11223;BME280;5668;52.012;8.724;2022-08-21T01:52:51;100268.66;;;20.41;72.15
11223;BME280;5668;52.012;8.724;2022-08-21T01:55:19;100260.44;;;20.36;71.42
11223;BME280;5668;52.012;8.724;2022-08-21T01:57:48;100259.94;;;20.32;71.67
11223;BME280;5668;52.012;8.724;2022-08-21T02:00:18;100258.00;;;20.18;72.58
11223;BME280;5668;52.012;8.724;2022-08-21T02:02:45;100263.97;;;20.12;73.33
11223;BME280;5668;52.012;8.724;2022-08-21T02:05:13;100265.25;;;20.16;73.45
11223;BME280;5668;52.012;8.724;2022-08-21T02:07:43;100260.31;;;20.21;73.31
11223;BME280;5668;52.012;8.724;2022-08-21T02:10:14;100256.31;;;20.25;73.06
11223;BME280;5668;52.012;8.724;2022-08-21T02:12:42;100257.00;;;20.27;72.49
11223;BME280;5668;52.012;8.724;2022-08-21T02:15:11;100241.47;;;20.24;71.85
11223;BME280;5668;52.012;8.724;2022-08-21T02:17:39;100249.56;;;20.23;72.04
11223;BME280;5668;52.012;8.724;2022-08-21T02:20:08;100251.72;;;20.27;71.82
11223;BME280;5668;52.012;8.724;2022-08-21T02:22:36;100249.72;;;20.29;71.63
11223;BME280;5668;52.012;8.724;2022-08-21T02:25:04;100251.34;;;20.30;71.62
11223;BME280;5668;52.012;8.724;2022-08-21T02:27:38;100247.25;;;20.28;71.57
11223;BME280;5668;52.012;8.724;2022-08-21T02:30:08;100239.34;;;20.28;71.50
11223;BME280;5668;52.012;8.724;2022-08-21T02:32:36;100240.31;;;20.27;71.44
11223;BME280;5668;52.012;8.724;2022-08-21T02:35:05;100250.72;;;20.28;71.24
11223;BME280;5668;52.012;8.724;2022-08-21T02:37:32;100245.59;;;20.27;71.34
11223;BME280;5668;52.012;8.724;2022-08-21T02:40:00;100247.09;;;20.29;71.31
11223;BME280;5668;52.012;8.724;2022-08-21T02:42:28;100242.81;;;20.28;71.43
11223;BME280;5668;52.012;8.724;2022-08-21T02:44:56;100244.63;;;20.28;71.37
11223;BME280;5668;52.012;8.724;2022-08-21T02:47:23;100244.78;;;20.26;71.42
11223;BME280;5668;52.012;8.724;2022-08-21T02:49:52;100243.13;;;20.25;71.44
11223;BME280;5668;52.012;8.724;2022-08-21T02:52:20;100250.38;;;20.23;71.24
11223;BME280;5668;52.012;8.724;2022-08-21T02:54:47;100241.84;;;20.21;71.31
11223;BME280;5668;52.012;8.724;2022-08-21T02:57:15;100238.53;;;20.19;71.37
11223;BME280;5668;52.012;8.724;2022-08-21T02:59:42;100241.19;;;20.19;71.48
11223;BME280;5668;52.012;8.724;2022-08-21T03:02:09;100242.81;;;20.20;71.08
11223;BME280;5668;52.012;8.724;2022-08-21T03:04:37;100244.81;;;20.18;71.34
11223;BME280;5668;52.012;8.724;2022-08-21T03:07:06;100233.59;;;20.16;71.51
11223;BME280;5668;52.012;8.724;2022-08-21T03:09:33;100233.63;;;20.08;71.68
11223;BME280;5668;52.012;8.724;2022-08-21T03:12:00;100245.41;;;19.89;73.05
11223;BME280;5668;52.012;8.724;2022-08-21T03:14:28;100240.28;;;19.80;74.38
11223;BME280;5668;52.012;8.724;2022-08-21T03:16:55;100239.81;;;19.84;74.47
11223;BME280;5668;52.012;8.724;2022-08-21T03:19:22;100236.50;;;19.82;73.80
11223;BME280;5668;52.012;8.724;2022-08-21T03:21:49;100235.69;;;19.74;74.13
11223;BME280;5668;52.012;8.724;2022-08-21T03:24:18;100227.63;;;19.75;74.52
11223;BME280;5668;52.012;8.724;2022-08-21T03:26:45;100238.31;;;19.82;74.65
11223;BME280;5668;52.012;8.724;2022-08-21T03:29:12;100238.63;;;19.87;73.76
11223;BME280;5668;52.012;8.724;2022-08-21T03:31:39;100245.41;;;19.81;73.60
11223;BME280;5668;52.012;8.724;2022-08-21T03:34:07;100240.81;;;19.75;74.50
11223;BME280;5668;52.012;8.724;2022-08-21T03:36:34;100239.31;;;19.81;74.52
11223;BME280;5668;52.012;8.724;2022-08-21T03:39:02;100238.78;;;19.85;74.41
11223;BME280;5668;52.012;8.724;2022-08-21T03:41:30;100238.63;;;19.87;74.36
11223;BME280;5668;52.012;8.724;2022-08-21T03:43:58;100240.13;;;19.89;74.05
11223;BME280;5668;52.012;8.724;2022-08-21T03:46:25;100249.16;;;19.95;73.94
11223;BME280;5668;52.012;8.724;2022-08-21T03:48:52;100242.91;;;19.96;73.77
11223;BME280;5668;52.012;8.724;2022-08-21T03:51:21;100246.19;;;19.98;73.38
11223;BME280;5668;52.012;8.724;2022-08-21T03:53:48;100245.84;;;20.01;73.25
11223;BME280;5668;52.012;8.724;2022-08-21T03:56:16;100245.69;;;20.02;73.26
11223;BME280;5668;52.012;8.724;2022-08-21T03:58:44;100256.06;;;20.04;73.48
11223;BME280;5668;52.012;8.724;2022-08-21T04:01:11;100252.09;;;20.08;73.42
11223;BME280;5668;52.012;8.724;2022-08-21T04:03:39;100254.09;;;20.06;73.66
11223;BME280;5668;52.012;8.724;2022-08-21T04:06:06;100266.47;;;20.05;73.63
11223;BME280;5668;52.012;8.724;2022-08-21T04:08:34;100268.94;;;20.07;73.36
11223;BME280;5668;52.012;8.724;2022-08-21T04:11:02;100275.84;;;20.08;73.42
11223;BME280;5668;52.012;8.724;2022-08-21T04:13:29;100271.75;;;20.05;73.39
11223;BME280;5668;52.012;8.724;2022-08-21T04:15:58;100268.28;;;20.05;73.41
11223;BME280;5668;52.012;8.724;2022-08-21T04:18:25;100268.28;;;20.05;73.47
11223;BME280;5668;52.012;8.724;2022-08-21T04:20:53;100272.56;;;20.06;73.49
11223;BME280;5668;52.012;8.724;2022-08-21T04:23:21;100277.84;;;20.06;73.32
11223;BME280;5668;52.012;8.724;2022-08-21T04:25:49;100274.88;;;20.01;73.34
11223;BME280;5668;52.012;8.724;2022-08-21T04:28:16;100275.84;;;20.00;73.33
11223;BME280;5668;52.012;8.724;2022-08-21T04:30:43;100281.34;;;19.90;73.79
11223;BME280;5668;52.012;8.724;2022-08-21T04:33:12;100280.38;;;19.83;74.83
11223;BME280;5668;52.012;8.724;2022-08-21T04:35:40;100284.00;;;19.82;74.20
11223;BME280;5668;52.012;8.724;2022-08-21T04:38:08;100279.19;;;19.78;74.50
11223;BME280;5668;52.012;8.724;2022-08-21T04:40:35;100280.53;;;19.74;75.00
11223;BME280;5668;52.012;8.724;2022-08-21T04:43:05;100276.91;;;19.75;74.87
11223;BME280;5668;52.012;8.724;2022-08-21T04:45:35;100285.13;;;19.80;75.08
11223;BME280;5668;52.012;8.724;2022-08-21T04:48:05;100279.53;;;19.75;74.70
11223;BME280;5668;52.012;8.724;2022-08-21T04:50:37;100288.59;;;19.64;75.24
11223;BME280;5668;52.012;8.724;2022-08-21T04:53:08;100291.09;;;19.57;75.82
11223;BME280;5668;52.012;8.724;2022-08-21T04:55:37;100294.72;;;19.56;75.92
11223;BME280;5668;52.012;8.724;2022-08-21T04:58:05;100296.72;;;19.54;76.09
11223;BME280;5668;52.012;8.724;2022-08-21T05:00:34;100294.41;;;19.51;76.72
11223;BME280;5668;52.012;8.724;2022-08-21T05:03:04;100293.88;;;19.56;76.73
11223;BME280;5668;52.012;8.724;2022-08-21T05:05:33;100302.97;;;19.61;76.08
11223;BME280;5668;52.012;8.724;2022-08-21T05:08:03;100295.22;;;19.68;75.92
11223;BME280;5668;52.012;8.724;2022-08-21T05:10:32;100291.09;;;19.74;75.81
11223;BME280;5668;52.012;8.724;2022-08-21T05:13:00;100296.88;;;19.77;75.70
11223;BME280;5668;52.012;8.724;2022-08-21T05:15:27;100302.63;;;19.81;75.68
11223;BME280;5668;52.012;8.724;2022-08-21T05:17:56;100300.63;;;19.83;75.31
11223;BME280;5668;52.012;8.724;2022-08-21T05:20:24;100297.00;;;19.84;75.35
11223;BME280;5668;52.012;8.724;2022-08-21T05:22:52;100299.31;;;19.87;75.02
11223;BME280;5668;52.012;8.724;2022-08-21T05:25:19;100305.25;;;19.89;74.83
11223;BME280;5668;52.012;8.724;2022-08-21T05:27:47;100304.09;;;19.91;74.94
11223;BME280;5668;52.012;8.724;2022-08-21T05:30:14;100303.06;;;19.92;74.85
11223;BME280;5668;52.012;8.724;2022-08-21T05:32:41;100298.97;;;19.90;74.71
11223;BME280;5668;52.012;8.724;2022-08-21T05:35:08;100304.91;;;19.92;74.46
11223;BME280;5668;52.012;8.724;2022-08-21T05:37:37;100305.72;;;19.92;74.81
11223;BME280;5668;52.012;8.724;2022-08-21T05:40:08;100313.47;;;19.94;74.84
11223;BME280;5668;52.012;8.724;2022-08-21T05:42:36;100311.50;;;19.96;74.67
11223;BME280;5668;52.012;8.724;2022-08-21T05:45:04;100312.16;;;19.98;74.77
11223;BME280;5668;52.012;8.724;2022-08-21T05:47:32;100312.16;;;19.98;75.15
11223;BME280;5668;52.012;8.724;2022-08-21T05:49:59;100311.16;;;19.99;75.11
11223;BME280;5668;52.012;8.724;2022-08-21T05:52:26;100313.81;;;19.99;75.41
11223;BME280;5668;52.012;8.724;2022-08-21T05:54:53;100315.09;;;20.03;75.71
11223;BME280;5668;52.012;8.724;2022-08-21T05:57:22;100310.50;;;20.05;76.13
11223;BME280;5668;52.012;8.724;2022-08-21T05:59:52;100309.72;;;20.52;74.43
11223;BME280;5668;52.012;8.724;2022-08-21T06:02:20;100309.94;;;20.34;75.50
11223;BME280;5668;52.012;8.724;2022-08-21T06:04:48;100304.81;;;20.24;76.27
11223;BME280;5668;52.012;8.724;2022-08-21T06:07:15;100310.47;;;20.21;76.64
11223;BME280;5668;52.012;8.724;2022-08-21T06:09:43;100302.69;;;20.20;76.68
11223;BME280;5668;52.012;8.724;2022-08-21T06:12:11;100305.50;;;20.18;77.39
11223;BME280;5668;52.012;8.724;2022-08-21T06:14:41;100307.47;;;20.24;77.86
11223;BME280;5668;52.012;8.724;2022-08-21T06:17:10;100296.06;;;20.32;77.92
11223;BME280;5668;52.012;8.724;2022-08-21T06:19:38;100301.50;;;20.38;77.62
11223;BME280;5668;52.012;8.724;2022-08-21T06:22:06;100300.03;;;20.44;77.50
11223;BME280;5668;52.012;8.724;2022-08-21T06:24:33;100298.16;;;20.53;77.70
11223;BME280;5668;52.012;8.724;2022-08-21T06:27:05;100304.06;;;20.63;77.48
11223;BME280;5668;52.012;8.724;2022-08-21T06:29:32;100304.97;;;20.78;77.04
11223;BME280;5668;52.012;8.724;2022-08-21T06:32:02;100297.72;;;20.80;76.80
11223;BME280;5668;52.012;8.724;2022-08-21T06:34:30;100300.81;;;20.83;76.54
11223;BME280;5668;52.012;8.724;2022-08-21T06:36:57;100309.88;;;20.89;76.38
11223;BME280;5668;52.012;8.724;2022-08-21T06:39:24;100307.38;;;20.96;76.56
11223;BME280;5668;52.012;8.724;2022-08-21T06:41:51;100302.19;;;21.02;76.24
11223;BME280;5668;52.012;8.724;2022-08-21T06:44:18;100300.16;;;21.12;75.62
11223;BME280;5668;52.012;8.724;2022-08-21T06:46:46;100300.47;;;21.17;75.09
11223;BME280;5668;52.012;8.724;2022-08-21T06:49:14;100295.47;;;21.22;74.29
11223;BME280;5668;52.012;8.724;2022-08-21T06:51:42;100295.59;;;21.29;73.72
11223;BME280;5668;52.012;8.724;2022-08-21T06:54:09;100294.09;;;21.35;73.58
11223;BME280;5668;52.012;8.724;2022-08-21T06:56:36;100286.72;;;21.45;73.67
11223;BME280;5668;52.012;8.724;2022-08-21T06:59:04;100288.28;;;21.54;73.30
11223;BME280;5668;52.012;8.724;2022-08-21T07:01:32;100292.88;;;21.60;72.96
11223;BME280;5668;52.012;8.724;2022-08-21T07:03:59;100291.97;;;21.68;72.88
11223;BME280;5668;52.012;8.724;2022-08-21T07:06:28;100290.06;;;21.76;72.41
11223;BME280;5668;52.012;8.724;2022-08-21T07:08:55;100290.00;;;21.84;72.17
11223;BME280;5668;52.012;8.724;2022-08-21T07:11:24;100292.56;;;21.92;71.79
11223;BME280;5668;52.012;8.724;2022-08-21T07:13:52;100287.88;;;22.03;71.05
11223;BME280;5668;52.012;8.724;2022-08-21T07:16:22;100286.31;;;22.08;70.75
11223;BME280;5668;52.012;8.724;2022-08-21T07:18:50;100291.69;;;22.15;70.32
11223;BME280;5668;52.012;8.724;2022-08-21T07:21:17;100288.97;;;22.23;69.81
11223;BME280;5668;52.012;8.724;2022-08-21T07:23:48;100289.06;;;22.29;69.51
11223;BME280;5668;52.012;8.724;2022-08-21T07:26:18;100286.13;;;22.39;68.29
11223;BME280;5668;52.012;8.724;2022-08-21T07:28:46;100283.56;;;22.46;67.40
11223;BME280;5668;52.012;8.724;2022-08-21T07:31:17;100277.59;;;22.58;66.44
11223;BME280;5668;52.012;8.724;2022-08-21T07:33:45;100279.78;;;22.69;66.55
11223;BME280;5668;52.012;8.724;2022-08-21T07:36:13;100285.00;;;22.77;66.14
11223;BME280;5668;52.012;8.724;2022-08-21T07:38:40;100287.72;;;22.84;66.27
11223;BME280;5668;52.012;8.724;2022-08-21T07:41:14;100282.09;;;22.94;64.54
11223;BME280;5668;52.012;8.724;2022-08-21T07:43:42;100280.34;;;23.01;63.47
11223;BME280;5668;52.012;8.724;2022-08-21T07:46:10;100276.56;;;23.10;63.49
11223;BME280;5668;52.012;8.724;2022-08-21T07:48:37;100281.09;;;23.16;64.17
11223;BME280;5668;52.012;8.724;2022-08-21T07:51:08;100284.44;;;23.25;62.99
11223;BME280;5668;52.012;8.724;2022-08-21T07:53:36;100278.19;;;23.32;62.37
11223;BME280;5668;52.012;8.724;2022-08-21T07:56:05;100281.72;;;23.39;61.33
11223;BME280;5668;52.012;8.724;2022-08-21T07:58:34;100289.31;;;23.42;60.82
11223;BME280;5668;52.012;8.724;2022-08-21T08:01:01;100284.25;;;23.47;60.02
11223;BME280;5668;52.012;8.724;2022-08-21T08:03:28;100281.91;;;23.52;58.82
11223;BME280;5668;52.012;8.724;2022-08-21T08:05:56;100280.13;;;23.60;58.49
11223;BME280;5668;52.012;8.724;2022-08-21T08:08:24;100284.88;;;23.71;59.17
11223;BME280;5668;52.012;8.724;2022-08-21T08:10:51;100280.06;;;23.81;57.82
11223;BME280;5668;52.012;8.724;2022-08-21T08:13:19;100280.28;;;23.86;58.00
11223;BME280;5668;52.012;8.724;2022-08-21T08:15:47;100276.03;;;23.91;58.36
11223;BME280;5668;52.012;8.724;2022-08-21T08:18:15;100276.47;;;23.95;57.79
11223;BME280;5668;52.012;8.724;2022-08-21T08:20:42;100279.34;;;24.00;57.21
11223;BME280;5668;52.012;8.724;2022-08-21T08:23:10;100278.38;;;24.08;57.84
11223;BME280;5668;52.012;8.724;2022-08-21T08:25:38;100280.06;;;24.15;58.33
11223;BME280;5668;52.012;8.724;2022-08-21T08:28:07;100277.75;;;24.34;56.84
11223;BME280;5668;52.012;8.724;2022-08-21T08:30:35;100260.78;;;24.35;56.88
11223;BME280;5668;52.012;8.724;2022-08-21T08:33:04;100265.72;;;24.44;55.40
11223;BME280;5668;52.012;8.724;2022-08-21T08:35:31;100262.09;;;24.58;55.90
11223;BME280;5668;52.012;8.724;2022-08-21T08:37:58;100265.00;;;24.70;55.77
11223;BME280;5668;52.012;8.724;2022-08-21T08:40:31;100262.78;;;24.80;54.85
11223;BME280;5668;52.012;8.724;2022-08-21T08:43:00;100259.72;;;24.83;53.59
11223;BME280;5668;52.012;8.724;2022-08-21T08:45:28;100267.53;;;24.91;52.45
11223;BME280;5668;52.012;8.724;2022-08-21T08:48:01;100260.19;;;24.93;52.04
11223;BME280;5668;52.012;8.724;2022-08-21T08:50:39;100254.25;;;24.98;52.29
11223;BME280;5668;52.012;8.724;2022-08-21T08:53:10;100257.75;;;25.12;53.25
11223;BME280;5668;52.012;8.724;2022-08-21T08:55:40;100259.44;;;25.26;50.69
11223;BME280;5668;52.012;8.724;2022-08-21T08:58:10;100260.66;;;25.30;51.33
11223;BME280;5668;52.012;8.724;2022-08-21T09:00:39;100247.53;;;25.35;48.90
11223;BME280;5668;52.012;8.724;2022-08-21T09:03:06;100247.31;;;25.50;48.33
11223;BME280;5668;52.012;8.724;2022-08-21T09:05:42;100251.22;;;25.54;47.80
11223;BME280;5668;52.012;8.724;2022-08-21T09:08:24;100253.91;;;25.67;47.77
11223;BME280;5668;52.012;8.724;2022-08-21T09:11:00;100246.53;;;25.75;47.41
11223;BME280;5668;52.012;8.724;2022-08-21T09:13:36;100244.88;;;25.81;47.87
11223;BME280;5668;52.012;8.724;2022-08-21T09:16:13;100247.09;;;25.91;47.20
11223;BME280;5668;52.012;8.724;2022-08-21T09:18:54;100244.81;;;26.07;47.13
11223;BME280;5668;52.012;8.724;2022-08-21T09:21:35;100238.44;;;26.15;46.78
11223;BME280;5668;52.012;8.724;2022-08-21T09:24:18;100241.91;;;26.29;46.02
11223;BME280;5668;52.012;8.724;2022-08-21T09:26:57;100242.91;;;26.34;46.08
11223;BME280;5668;52.012;8.724;2022-08-21T09:29:30;100244.31;;;26.43;45.36
11223;BME280;5668;52.012;8.724;2022-08-21T09:31:58;100239.97;;;26.49;44.29
11223;BME280;5668;52.012;8.724;2022-08-21T09:34:27;100235.63;;;26.54;44.26
11223;BME280;5668;52.012;8.724;2022-08-21T09:36:56;100236.22;;;26.56;43.83
11223;BME280;5668;52.012;8.724;2022-08-21T09:39:27;100237.91;;;26.51;42.74
11223;BME280;5668;52.012;8.724;2022-08-21T09:41:59;100235.47;;;26.43;42.94
11223;BME280;5668;52.012;8.724;2022-08-21T09:44:30;100236.72;;;26.40;43.60
11223;BME280;5668;52.012;8.724;2022-08-21T09:46:58;100232.63;;;26.44;43.99
11223;BME280;5668;52.012;8.724;2022-08-21T09:49:29;100229.97;;;26.38;43.57
11223;BME280;5668;52.012;8.724;2022-08-21T09:51:59;100234.28;;;26.39;44.05
11223;BME280;5668;52.012;8.724;2022-08-21T09:54:30;100228.06;;;26.51;45.12
11223;BME280;5668;52.012;8.724;2022-08-21T09:57:00;100233.53;;;26.63;43.66
11223;BME280;5668;52.012;8.724;2022-08-21T09:59:46;100226.25;;;26.77;43.86
11223;BME280;5668;52.012;8.724;2022-08-21T10:02:24;100219.66;;;26.86;43.55
11223;BME280;5668;52.012;8.724;2022-08-21T10:04:54;100218.63;;;26.87;42.60
11223;BME280;5668;52.012;8.724;2022-08-21T10:07:24;100209.84;;;26.80;41.73
11223;BME280;5668;52.012;8.724;2022-08-21T10:10:01;100211.47;;;26.81;42.29
11223;BME280;5668;52.012;8.724;2022-08-21T10:12:34;100208.03;;;26.74;42.50
11223;BME280;5668;52.012;8.724;2022-08-21T10:15:12;100206.63;;;26.71;42.83
11223;BME280;5668;52.012;8.724;2022-08-21T10:17:48;100199.69;;;26.64;42.73
11223;BME280;5668;52.012;8.724;2022-08-21T10:20:22;100205.22;;;26.62;43.48
11223;BME280;5668;52.012;8.724;2022-08-21T10:23:02;100200.25;;;26.72;43.88
11223;BME280;5668;52.012;8.724;2022-08-21T10:25:40;100202.44;;;26.82;43.89
11223;BME280;5668;52.012;8.724;2022-08-21T10:28:15;100205.47;;;26.92;43.41
11223;BME280;5668;52.012;8.724;2022-08-21T10:30:51;100199.28;;;26.98;43.41
11223;BME280;5668;52.012;8.724;2022-08-21T10:33:33;100196.19;;;27.01;42.56
11223;BME280;5668;52.012;8.724;2022-08-21T10:36:09;100196.84;;;27.21;42.40
11223;BME280;5668;52.012;8.724;2022-08-21T10:38:51;100198.09;;;27.44;43.00
11223;BME280;5668;52.012;8.724;2022-08-21T10:41:31;100183.47;;;27.46;41.64
11223;BME280;5668;52.012;8.724;2022-08-21T10:44:12;100192.94;;;27.67;41.19
11223;BME280;5668;52.012;8.724;2022-08-21T10:46:46;100190.78;;;27.76;41.88
11223;BME280;5668;52.012;8.724;2022-08-21T10:49:22;100196.22;;;27.69;41.12
11223;BME280;5668;52.012;8.724;2022-08-21T10:52:01;100193.50;;;27.51;41.23
11223;BME280;5668;52.012;8.724;2022-08-21T10:54:38;100186.25;;;27.33;40.72
11223;BME280;5668;52.012;8.724;2022-08-21T10:57:16;100189.41;;;27.23;41.01
11223;BME280;5668;52.012;8.724;2022-08-21T10:59:49;100180.16;;;27.26;41.46
11223;BME280;5668;52.012;8.724;2022-08-21T11:02:24;100178.75;;;27.23;41.90
11223;BME280;5668;52.012;8.724;2022-08-21T11:04:57;100179.78;;;27.22;41.79
11223;BME280;5668;52.012;8.724;2022-08-21T11:07:29;100176.84;;;27.30;41.54
11223;BME280;5668;52.012;8.724;2022-08-21T11:10:05;100176.06;;;27.48;42.19
11223;BME280;5668;52.012;8.724;2022-08-21T11:12:40;100178.09;;;27.53;41.56
11223;BME280;5668;52.012;8.724;2022-08-21T11:15:22;100181.75;;;27.52;41.33
11223;BME280;5668;52.012;8.724;2022-08-21T11:17:54;100181.06;;;27.63;41.74
11223;BME280;5668;52.012;8.724;2022-08-21T11:20:29;100172.84;;;27.83;40.64
11223;BME280;5668;52.012;8.724;2022-08-21T11:23:04;100177.22;;;27.95;40.72
11223;BME280;5668;52.012;8.724;2022-08-21T11:25:39;100171.50;;;28.10;40.29
11223;BME280;5668;52.012;8.724;2022-08-21T11:28:12;100182.34;;;28.15;40.33
11223;BME280;5668;52.012;8.724;2022-08-21T11:30:48;100172.84;;;28.19;39.23
11223;BME280;5668;52.012;8.724;2022-08-21T11:33:29;100167.41;;;28.26;38.33
11223;BME280;5668;52.012;8.724;2022-08-21T11:36:06;100169.84;;;28.27;39.67
11223;BME280;5668;52.012;8.724;2022-08-21T11:38:40;100168.06;;;28.39;39.53
11223;BME280;5668;52.012;8.724;2022-08-21T11:41:18;100174.75;;;28.60;39.29
11223;BME280;5668;52.012;8.724;2022-08-21T11:43:49;100168.03;;;28.69;39.32
11223;BME280;5668;52.012;8.724;2022-08-21T11:46:25;100175.53;;;28.79;38.85
11223;BME280;5668;52.012;8.724;2022-08-21T11:49:06;100170.97;;;28.79;38.10
11223;BME280;5668;52.012;8.724;2022-08-21T11:51:40;100177.09;;;28.68;38.39
11223;BME280;5668;52.012;8.724;2022-08-21T11:54:24;100175.13;;;28.64;38.99
11223;BME280;5668;52.012;8.724;2022-08-21T11:56:59;100170.00;;;28.62;39.04
11223;BME280;5668;52.012;8.724;2022-08-21T11:59:35;100168.69;;;28.53;37.44
11223;BME280;5668;52.012;8.724;2022-08-21T12:02:09;100179.88;;;28.62;37.34
11223;BME280;5668;52.012;8.724;2022-08-21T12:04:47;100173.81;;;28.66;37.36
11223;BME280;5668;52.012;8.724;2022-08-21T12:07:30;100173.72;;;28.73;36.98
11223;BME280;5668;52.012;8.724;2022-08-21T12:09:59;100161.78;;;28.75;37.13
11223;BME280;5668;52.012;8.724;2022-08-21T12:12:32;100169.47;;;28.83;37.40
11223;BME280;5668;52.012;8.724;2022-08-21T12:15:26;100171.72;;;28.98;36.87
11223;BME280;5668;52.012;8.724;2022-08-21T12:17:58;100168.94;;;29.05;36.95
11223;BME280;5668;52.012;8.724;2022-08-21T12:20:37;100167.88;;;29.06;37.56
11223;BME280;5668;52.012;8.724;2022-08-21T12:23:14;100168.13;;;29.16;37.67
11223;BME280;5668;52.012;8.724;2022-08-21T12:25:44;100161.13;;;29.26;37.17
11223;BME280;5668;52.012;8.724;2022-08-21T12:28:21;100159.97;;;29.34;36.50
11223;BME280;5668;52.012;8.724;2022-08-21T12:30:49;100166.88;;;29.42;35.32
11223;BME280;5668;52.012;8.724;2022-08-21T12:33:23;100169.78;;;29.52;34.54
11223;BME280;5668;52.012;8.724;2022-08-21T12:35:52;100154.41;;;29.47;35.08
11223;BME280;5668;52.012;8.724;2022-08-21T12:38:27;100156.50;;;29.57;35.05
11223;BME280;5668;52.012;8.724;2022-08-21T12:40:57;100158.94;;;29.58;34.28
11223;BME280;5668;52.012;8.724;2022-08-21T12:43:30;100157.22;;;29.52;34.56
11223;BME280;5668;52.012;8.724;2022-08-21T12:46:00;100160.47;;;29.54;34.44
11223;BME280;5668;52.012;8.724;2022-08-21T12:48:35;100156.72;;;29.55;34.99
11223;BME280;5668;52.012;8.724;2022-08-21T12:51:11;100154.63;;;29.57;34.74
11223;BME280;5668;52.012;8.724;2022-08-21T12:53:44;100148.47;;;29.57;34.55
11223;BME280;5668;52.012;8.724;2022-08-21T12:56:15;100145.22;;;29.43;34.63
11223;BME280;5668;52.012;8.724;2022-08-21T12:58:47;100149.59;;;29.26;34.91
11223;BME280;5668;52.012;8.724;2022-08-21T13:01:19;100149.25;;;29.11;35.75
11223;BME280;5668;52.012;8.724;2022-08-21T13:03:50;100147.41;;;29.11;35.95
11223;BME280;5668;52.012;8.724;2022-08-21T13:06:19;100151.13;;;29.22;35.76
11223;BME280;5668;52.012;8.724;2022-08-21T13:08:49;100136.59;;;29.30;36.45
11223;BME280;5668;52.012;8.724;2022-08-21T13:11:20;100136.50;;;29.36;35.66
11223;BME280;5668;52.012;8.724;2022-08-21T13:13:51;100136.59;;;29.41;35.99
11223;BME280;5668;52.012;8.724;2022-08-21T13:16:22;100129.59;;;29.40;34.62
11223;BME280;5668;52.012;8.724;2022-08-21T13:18:56;100136.03;;;29.39;34.90